sensor_id;sensor_type;location;lat;lon;timestamp;P1;durP1;ratioP1;P2;durP2;ratioP2
37701;SDS011;23548;51.196;6.838;2023-04-25T00:02:20;24.38;;;6.75;;
37701;SDS011;23548;51.196;6.838;2023-04-25T00:04:47;24.10;;;7.57;;
37701;SDS011;23548;51.196;6.838;2023-04-25T00:07:14;21.08;;;7.53;;
37701;SDS011;23548;51.196;6.838;2023-04-25T00:09:41;24.17;;;7.38;;
37701;SDS011;23548;51.196;6.838;2023-04-25T00:12:07;24.38;;;7.82;;
37701;SDS011;23548;51.196;6.838;2023-04-25T00:14:33;23.40;;;8.05;;
37701;SDS011;23548;51.196;6.838;2023-04-25T00:17:00;21.08;;;7.65;;
37701;SDS011;23548;51.196;6.838;2023-04-25T00:19:26;21.00;;;6.85;;
37701;SDS011;23548;51.196;6.838;2023-04-25T00:21:54;21.77;;;6.57;;
37701;SDS011;23548;51.196;6.838;2023-04-25T00:24:20;19.80;;;6.07;;
37701;SDS011;23548;51.196;6.838;2023-04-25T00:26:46;17.98;;;7.53;;
37701;SDS011;23548;51.196;6.838;2023-04-25T00:29:12;15.70;;;5.95;;
37701;SDS011;23548;51.196;6.838;2023-04-25T00:31:38;18.42;;;6.50;;
37701;SDS011;23548;51.196;6.838;2023-04-25T00:34:04;18.48;;;6.90;;
37701;SDS011;23548;51.196;6.838;2023-04-25T00:36:31;22.65;;;6.80;;
37701;SDS011;23548;51.196;6.838;2023-04-25T00:38:57;21.08;;;7.25;;
37701;SDS011;23548;51.196;6.838;2023-04-25T00:41:23;19.52;;;6.10;;
37701;SDS011;23548;51.196;6.838;2023-04-25T00:43:51;22.23;;;6.95;;
37701;SDS011;23548;51.196;6.838;2023-04-25T00:46:19;19.85;;;6.38;;
37701;SDS011;23548;51.196;6.838;2023-04-25T00:48:45;17.60;;;5.90;;
37701;SDS011;23548;51.196;6.838;2023-04-25T00:51:13;14.23;;;5.95;;
37701;SDS011;23548;51.196;6.838;2023-04-25T00:53:41;14.57;;;5.55;;
37701;SDS011;23548;51.196;6.838;2023-04-25T00:56:07;23.58;;;6.50;;
37701;SDS011;23548;51.196;6.838;2023-04-25T00:58:33;14.90;;;5.90;;
37701;SDS011;23548;51.196;6.838;2023-04-25T01:00:59;16.20;;;6.07;;
37701;SDS011;23548;51.196;6.838;2023-04-25T01:03:26;19.63;;;6.68;;
37701;SDS011;23548;51.196;6.838;2023-04-25T01:05:53;22.58;;;6.78;;
37701;SDS011;23548;51.196;6.838;2023-04-25T01:08:19;20.90;;;6.20;;
37701;SDS011;23548;51.196;6.838;2023-04-25T01:10:48;18.83;;;6.10;;
37701;SDS011;23548;51.196;6.838;2023-04-25T01:13:14;14.98;;;5.47;;
37701;SDS011;23548;51.196;6.838;2023-04-25T01:15:40;16.58;;;5.47;;
37701;SDS011;23548;51.196;6.838;2023-04-25T01:18:06;13.85;;;5.93;;
37701;SDS011;23548;51.196;6.838;2023-04-25T01:20:32;14.65;;;5.25;;
37701;SDS011;23548;51.196;6.838;2023-04-25T01:22:58;16.02;;;6.00;;
37701;SDS011;23548;51.196;6.838;2023-04-25T01:25:25;16.10;;;5.80;;
37701;SDS011;23548;51.196;6.838;2023-04-25T01:27:51;15.27;;;5.40;;
37701;SDS011;23548;51.196;6.838;2023-04-25T01:30:17;20.90;;;6.20;;
37701;SDS011;23548;51.196;6.838;2023-04-25T01:32:43;12.50;;;5.25;;
37701;SDS011;23548;51.196;6.838;2023-04-25T01:35:10;14.60;;;5.43;;
37701;SDS011;23548;51.196;6.838;2023-04-25T01:37:40;17.02;;;5.53;;
37701;SDS011;23548;51.196;6.838;2023-04-25T01:40:07;12.30;;;5.20;;
37701;SDS011;23548;51.196;6.838;2023-04-25T01:42:35;13.32;;;5.13;;
37701;SDS011;23548;51.196;6.838;2023-04-25T01:45:05;12.15;;;5.47;;
37701;SDS011;23548;51.196;6.838;2023-04-25T01:47:32;12.15;;;5.35;;
37701;SDS011;23548;51.196;6.838;2023-04-25T01:50:00;18.45;;;4.95;;
37701;SDS011;23548;51.196;6.838;2023-04-25T01:52:36;12.80;;;5.40;;
37701;SDS011;23548;51.196;6.838;2023-04-25T01:55:02;15.48;;;5.53;;
37701;SDS011;23548;51.196;6.838;2023-04-25T01:57:28;13.85;;;5.25;;
37701;SDS011;23548;51.196;6.838;2023-04-25T01:59:55;9.73;;;5.15;;
37701;SDS011;23548;51.196;6.838;2023-04-25T02:02:25;15.98;;;5.22;;
37701;SDS011;23548;51.196;6.838;2023-04-25T02:04:51;15.77;;;5.53;;
37701;SDS011;23548;51.196;6.838;2023-04-25T02:07:17;13.85;;;5.68;;
37701;SDS011;23548;51.196;6.838;2023-04-25T02:09:43;11.32;;;5.72;;
37701;SDS011;23548;51.196;6.838;2023-04-25T02:12:09;13.32;;;5.05;;
37701;SDS011;23548;51.196;6.838;2023-04-25T02:14:35;19.27;;;5.60;;
37701;SDS011;23548;51.196;6.838;2023-04-25T02:17:02;15.25;;;5.10;;
37701;SDS011;23548;51.196;6.838;2023-04-25T02:19:27;10.93;;;5.20;;
37701;SDS011;23548;51.196;6.838;2023-04-25T02:21:53;14.48;;;5.25;;
37701;SDS011;23548;51.196;6.838;2023-04-25T02:24:20;13.52;;;5.32;;
37701;SDS011;23548;51.196;6.838;2023-04-25T02:26:46;14.95;;;5.22;;
37701;SDS011;23548;51.196;6.838;2023-04-25T02:29:12;18.05;;;5.45;;
37701;SDS011;23548;51.196;6.838;2023-04-25T02:31:38;13.55;;;5.68;;
37701;SDS011;23548;51.196;6.838;2023-04-25T02:34:04;12.70;;;4.53;;
37701;SDS011;23548;51.196;6.838;2023-04-25T02:36:30;12.27;;;4.82;;
37701;SDS011;23548;51.196;6.838;2023-04-25T02:38:59;11.60;;;4.30;;
37701;SDS011;23548;51.196;6.838;2023-04-25T02:41:25;13.43;;;4.40;;
37701;SDS011;23548;51.196;6.838;2023-04-25T02:43:52;7.45;;;4.05;;
37701;SDS011;23548;51.196;6.838;2023-04-25T02:46:17;9.25;;;3.80;;
37701;SDS011;23548;51.196;6.838;2023-04-25T02:48:43;11.52;;;3.88;;
37701;SDS011;23548;51.196;6.838;2023-04-25T02:51:09;11.27;;;4.43;;
37701;SDS011;23548;51.196;6.838;2023-04-25T02:53:35;11.27;;;3.95;;
37701;SDS011;23548;51.196;6.838;2023-04-25T02:56:01;9.00;;;4.15;;
37701;SDS011;23548;51.196;6.838;2023-04-25T02:58:27;13.07;;;4.88;;
37701;SDS011;23548;51.196;6.838;2023-04-25T03:00:53;10.80;;;4.07;;
37701;SDS011;23548;51.196;6.838;2023-04-25T03:03:20;11.25;;;5.03;;
37701;SDS011;23548;51.196;6.838;2023-04-25T03:05:48;14.77;;;4.85;;
37701;SDS011;23548;51.196;6.838;2023-04-25T03:08:15;10.98;;;4.88;;
37701;SDS011;23548;51.196;6.838;2023-04-25T03:10:41;13.20;;;5.28;;
37701;SDS011;23548;51.196;6.838;2023-04-25T03:13:07;15.57;;;5.18;;
37701;SDS011;23548;51.196;6.838;2023-04-25T03:15:33;9.88;;;4.60;;
37701;SDS011;23548;51.196;6.838;2023-04-25T03:18:00;16.67;;;5.95;;
37701;SDS011;23548;51.196;6.838;2023-04-25T03:20:26;14.63;;;5.30;;
37701;SDS011;23548;51.196;6.838;2023-04-25T03:22:52;14.15;;;5.80;;
37701;SDS011;23548;51.196;6.838;2023-04-25T03:25:18;11.68;;;6.00;;
37701;SDS011;23548;51.196;6.838;2023-04-25T03:27:44;22.17;;;6.30;;
37701;SDS011;23548;51.196;6.838;2023-04-25T03:30:10;12.50;;;6.35;;
37701;SDS011;23548;51.196;6.838;2023-04-25T03:32:36;16.40;;;6.03;;
37701;SDS011;23548;51.196;6.838;2023-04-25T03:35:02;21.17;;;6.25;;
37701;SDS011;23548;51.196;6.838;2023-04-25T03:37:28;14.43;;;6.00;;
37701;SDS011;23548;51.196;6.838;2023-04-25T03:39:54;17.10;;;6.22;;
37701;SDS011;23548;51.196;6.838;2023-04-25T03:42:20;18.95;;;6.47;;
37701;SDS011;23548;51.196;6.838;2023-04-25T03:44:48;17.40;;;6.78;;
37701;SDS011;23548;51.196;6.838;2023-04-25T03:47:15;15.23;;;6.35;;
37701;SDS011;23548;51.196;6.838;2023-04-25T03:49:40;19.63;;;6.30;;
37701;SDS011;23548;51.196;6.838;2023-04-25T03:52:07;15.82;;;6.68;;
37701;SDS011;23548;51.196;6.838;2023-04-25T03:54:32;15.55;;;6.40;;
37701;SDS011;23548;51.196;6.838;2023-04-25T03:56:58;18.83;;;6.30;;
37701;SDS011;23548;51.196;6.838;2023-04-25T03:59:24;15.65;;;6.35;;
37701;SDS011;23548;51.196;6.838;2023-04-25T04:01:51;17.48;;;6.22;;
37701;SDS011;23548;51.196;6.838;2023-04-25T04:04:17;22.63;;;6.68;;
37701;SDS011;23548;51.196;6.838;2023-04-25T04:06:43;22.67;;;7.05;;
37701;SDS011;23548;51.196;6.838;2023-04-25T04:09:09;18.63;;;5.93;;
37701;SDS011;23548;51.196;6.838;2023-04-25T04:11:36;19.58;;;6.25;;
37701;SDS011;23548;51.196;6.838;2023-04-25T04:14:04;23.17;;;6.55;;
37701;SDS011;23548;51.196;6.838;2023-04-25T04:16:31;24.23;;;6.97;;
37701;SDS011;23548;51.196;6.838;2023-04-25T04:18:57;15.98;;;6.32;;
37701;SDS011;23548;51.196;6.838;2023-04-25T04:21:22;25.27;;;5.88;;
37701;SDS011;23548;51.196;6.838;2023-04-25T04:23:48;18.70;;;5.85;;
37701;SDS011;23548;51.196;6.838;2023-04-25T04:26:14;18.45;;;6.80;;
37701;SDS011;23548;51.196;6.838;2023-04-25T04:28:43;19.95;;;6.28;;
37701;SDS011;23548;51.196;6.838;2023-04-25T04:31:09;22.85;;;6.65;;
37701;SDS011;23548;51.196;6.838;2023-04-25T04:33:35;20.60;;;6.45;;
37701;SDS011;23548;51.196;6.838;2023-04-25T04:36:02;24.10;;;6.43;;
37701;SDS011;23548;51.196;6.838;2023-04-25T04:38:28;23.02;;;6.65;;
37701;SDS011;23548;51.196;6.838;2023-04-25T04:40:55;20.40;;;6.45;;
37701;SDS011;23548;51.196;6.838;2023-04-25T04:43:21;22.17;;;6.22;;
37701;SDS011;23548;51.196;6.838;2023-04-25T04:45:48;24.95;;;6.43;;
37701;SDS011;23548;51.196;6.838;2023-04-25T04:48:15;21.48;;;6.50;;
37701;SDS011;23548;51.196;6.838;2023-04-25T04:50:42;22.38;;;6.38;;
37701;SDS011;23548;51.196;6.838;2023-04-25T04:53:10;24.48;;;6.10;;
37701;SDS011;23548;51.196;6.838;2023-04-25T04:55:36;18.45;;;6.07;;
37701;SDS011;23548;51.196;6.838;2023-04-25T04:58:02;19.50;;;6.68;;
37701;SDS011;23548;51.196;6.838;2023-04-25T05:00:28;20.58;;;6.28;;
37701;SDS011;23548;51.196;6.838;2023-04-25T05:02:54;20.52;;;6.40;;
37701;SDS011;23548;51.196;6.838;2023-04-25T05:05:21;21.80;;;6.32;;
37701;SDS011;23548;51.196;6.838;2023-04-25T05:07:46;28.02;;;6.30;;
37701;SDS011;23548;51.196;6.838;2023-04-25T05:10:12;25.25;;;6.15;;
37701;SDS011;23548;51.196;6.838;2023-04-25T05:12:38;20.15;;;6.05;;
37701;SDS011;23548;51.196;6.838;2023-04-25T05:15:04;17.73;;;6.13;;
37701;SDS011;23548;51.196;6.838;2023-04-25T05:17:30;21.85;;;6.40;;
37701;SDS011;23548;51.196;6.838;2023-04-25T05:19:57;18.35;;;6.07;;
37701;SDS011;23548;51.196;6.838;2023-04-25T05:22:23;21.30;;;6.78;;
37701;SDS011;23548;51.196;6.838;2023-04-25T05:24:49;18.05;;;6.30;;
37701;SDS011;23548;51.196;6.838;2023-04-25T05:27:16;19.75;;;6.93;;
37701;SDS011;23548;51.196;6.838;2023-04-25T05:29:43;23.00;;;6.72;;
37701;SDS011;23548;51.196;6.838;2023-04-25T05:32:09;22.30;;;6.65;;
37701;SDS011;23548;51.196;6.838;2023-04-25T05:34:35;24.00;;;6.28;;
37701;SDS011;23548;51.196;6.838;2023-04-25T05:37:01;21.83;;;6.38;;
37701;SDS011;23548;51.196;6.838;2023-04-25T05:39:27;16.75;;;6.20;;
37701;SDS011;23548;51.196;6.838;2023-04-25T05:41:52;21.80;;;6.00;;
37701;SDS011;23548;51.196;6.838;2023-04-25T05:44:18;21.52;;;6.35;;
37701;SDS011;23548;51.196;6.838;2023-04-25T05:46:44;23.75;;;6.50;;
37701;SDS011;23548;51.196;6.838;2023-04-25T05:49:10;21.88;;;6.65;;
37701;SDS011;23548;51.196;6.838;2023-04-25T05:51:36;23.30;;;6.20;;
37701;SDS011;23548;51.196;6.838;2023-04-25T05:54:01;22.77;;;6.35;;
37701;SDS011;23548;51.196;6.838;2023-04-25T05:56:27;23.20;;;6.20;;
37701;SDS011;23548;51.196;6.838;2023-04-25T05:58:53;18.90;;;5.30;;
37701;SDS011;23548;51.196;6.838;2023-04-25T06:01:21;17.80;;;5.60;;
37701;SDS011;23548;51.196;6.838;2023-04-25T06:03:47;13.50;;;5.30;;
37701;SDS011;23548;51.196;6.838;2023-04-25T06:06:13;16.45;;;5.30;;
37701;SDS011;23548;51.196;6.838;2023-04-25T06:08:39;16.45;;;5.18;;
37701;SDS011;23548;51.196;6.838;2023-04-25T06:11:06;24.85;;;5.63;;
37701;SDS011;23548;51.196;6.838;2023-04-25T06:13:32;18.30;;;6.47;;
37701;SDS011;23548;51.196;6.838;2023-04-25T06:15:58;14.45;;;5.47;;
37701;SDS011;23548;51.196;6.838;2023-04-25T06:18:24;21.60;;;5.95;;
37701;SDS011;23548;51.196;6.838;2023-04-25T06:20:49;19.33;;;6.13;;
37701;SDS011;23548;51.196;6.838;2023-04-25T06:23:15;20.80;;;6.60;;
37701;SDS011;23548;51.196;6.838;2023-04-25T06:25:43;21.15;;;6.40;;
37701;SDS011;23548;51.196;6.838;2023-04-25T06:28:12;23.92;;;5.80;;
37701;SDS011;23548;51.196;6.838;2023-04-25T06:30:37;15.30;;;6.43;;
37701;SDS011;23548;51.196;6.838;2023-04-25T06:33:03;25.05;;;6.07;;
37701;SDS011;23548;51.196;6.838;2023-04-25T06:35:30;16.80;;;5.97;;
37701;SDS011;23548;51.196;6.838;2023-04-25T06:37:56;16.02;;;5.43;;
37701;SDS011;23548;51.196;6.838;2023-04-25T06:40:22;20.92;;;5.47;;
37701;SDS011;23548;51.196;6.838;2023-04-25T06:42:47;19.00;;;5.70;;
37701;SDS011;23548;51.196;6.838;2023-04-25T06:45:13;25.70;;;7.07;;
37701;SDS011;23548;51.196;6.838;2023-04-25T06:47:39;22.30;;;6.10;;
37701;SDS011;23548;51.196;6.838;2023-04-25T06:50:05;14.63;;;6.28;;
37701;SDS011;23548;51.196;6.838;2023-04-25T06:52:31;19.40;;;6.03;;
37701;SDS011;23548;51.196;6.838;2023-04-25T06:54:57;18.75;;;5.80;;
37701;SDS011;23548;51.196;6.838;2023-04-25T06:57:23;25.25;;;6.20;;
37701;SDS011;23548;51.196;6.838;2023-04-25T06:59:49;17.48;;;6.47;;
37701;SDS011;23548;51.196;6.838;2023-04-25T07:02:15;17.83;;;7.00;;
37701;SDS011;23548;51.196;6.838;2023-04-25T07:04:40;24.98;;;6.93;;
37701;SDS011;23548;51.196;6.838;2023-04-25T07:07:06;19.08;;;6.50;;
37701;SDS011;23548;51.196;6.838;2023-04-25T07:09:32;22.08;;;5.90;;
37701;SDS011;23548;51.196;6.838;2023-04-25T07:11:59;16.90;;;5.53;;
37701;SDS011;23548;51.196;6.838;2023-04-25T07:14:26;12.02;;;5.85;;
37701;SDS011;23548;51.196;6.838;2023-04-25T07:16:52;18.70;;;5.68;;
37701;SDS011;23548;51.196;6.838;2023-04-25T07:19:18;17.02;;;5.00;;
37701;SDS011;23548;51.196;6.838;2023-04-25T07:21:44;19.25;;;5.43;;
37701;SDS011;23548;51.196;6.838;2023-04-25T07:24:09;25.73;;;6.60;;
37701;SDS011;23548;51.196;6.838;2023-04-25T07:26:35;18.88;;;5.70;;
37701;SDS011;23548;51.196;6.838;2023-04-25T07:29:01;12.40;;;4.78;;
37701;SDS011;23548;51.196;6.838;2023-04-25T07:31:27;18.85;;;4.97;;
37701;SDS011;23548;51.196;6.838;2023-04-25T07:33:53;18.50;;;4.38;;
37701;SDS011;23548;51.196;6.838;2023-04-25T07:36:18;13.75;;;4.60;;
37701;SDS011;23548;51.196;6.838;2023-04-25T07:38:44;15.20;;;4.35;;
37701;SDS011;23548;51.196;6.838;2023-04-25T07:41:10;10.93;;;4.28;;
37701;SDS011;23548;51.196;6.838;2023-04-25T07:43:36;13.68;;;4.53;;
37701;SDS011;23548;51.196;6.838;2023-04-25T07:46:01;16.92;;;3.80;;
37701;SDS011;23548;51.196;6.838;2023-04-25T07:48:27;14.65;;;3.17;;
37701;SDS011;23548;51.196;6.838;2023-04-25T07:50:53;14.02;;;5.10;;
37701;SDS011;23548;51.196;6.838;2023-04-25T07:53:19;17.00;;;5.13;;
37701;SDS011;23548;51.196;6.838;2023-04-25T07:55:48;15.23;;;4.93;;
37701;SDS011;23548;51.196;6.838;2023-04-25T07:58:13;21.83;;;5.75;;
37701;SDS011;23548;51.196;6.838;2023-04-25T08:00:40;18.60;;;5.65;;
37701;SDS011;23548;51.196;6.838;2023-04-25T08:03:06;12.38;;;5.80;;
37701;SDS011;23548;51.196;6.838;2023-04-25T08:05:32;15.02;;;5.40;;
37701;SDS011;23548;51.196;6.838;2023-04-25T08:07:58;14.88;;;5.05;;
37701;SDS011;23548;51.196;6.838;2023-04-25T08:10:24;15.18;;;4.45;;
37701;SDS011;23548;51.196;6.838;2023-04-25T08:12:50;13.82;;;3.58;;
37701;SDS011;23548;51.196;6.838;2023-04-25T08:15:15;12.82;;;4.18;;
37701;SDS011;23548;51.196;6.838;2023-04-25T08:17:41;12.45;;;4.00;;
37701;SDS011;23548;51.196;6.838;2023-04-25T08:20:09;9.82;;;3.38;;
37701;SDS011;23548;51.196;6.838;2023-04-25T08:22:35;13.60;;;3.85;;
37701;SDS011;23548;51.196;6.838;2023-04-25T08:25:01;17.23;;;4.78;;
37701;SDS011;23548;51.196;6.838;2023-04-25T08:27:27;13.80;;;4.35;;
37701;SDS011;23548;51.196;6.838;2023-04-25T08:29:52;11.23;;;4.47;;
37701;SDS011;23548;51.196;6.838;2023-04-25T08:32:19;18.00;;;5.30;;
37701;SDS011;23548;51.196;6.838;2023-04-25T08:34:46;11.70;;;4.93;;
37701;SDS011;23548;51.196;6.838;2023-04-25T08:37:12;15.38;;;5.28;;
37701;SDS011;23548;51.196;6.838;2023-04-25T08:39:37;14.13;;;4.82;;
37701;SDS011;23548;51.196;6.838;2023-04-25T08:42:05;10.23;;;3.80;;
37701;SDS011;23548;51.196;6.838;2023-04-25T08:44:35;12.68;;;4.35;;
37701;SDS011;23548;51.196;6.838;2023-04-25T08:47:04;14.55;;;4.28;;
37701;SDS011;23548;51.196;6.838;2023-04-25T08:49:33;12.38;;;5.15;;
37701;SDS011;23548;51.196;6.838;2023-04-25T08:52:00;13.18;;;4.38;;
37701;SDS011;23548;51.196;6.838;2023-04-25T08:54:28;10.52;;;3.75;;
37701;SDS011;23548;51.196;6.838;2023-04-25T08:56:56;16.52;;;4.45;;
37701;SDS011;23548;51.196;6.838;2023-04-25T08:59:26;15.35;;;4.15;;
37701;SDS011;23548;51.196;6.838;2023-04-25T09:01:53;10.02;;;3.88;;
37701;SDS011;23548;51.196;6.838;2023-04-25T09:04:18;10.65;;;3.20;;
37701;SDS011;23548;51.196;6.838;2023-04-25T09:06:45;13.63;;;3.53;;
37701;SDS011;23548;51.196;6.838;2023-04-25T09:09:12;8.77;;;3.42;;
37701;SDS011;23548;51.196;6.838;2023-04-25T09:11:38;8.13;;;2.90;;
37701;SDS011;23548;51.196;6.838;2023-04-25T09:14:11;10.50;;;2.50;;
37701;SDS011;23548;51.196;6.838;2023-04-25T09:19:29;8.55;;;3.08;;
37701;SDS011;23548;51.196;6.838;2023-04-25T09:22:03;11.05;;;3.40;;
37701;SDS011;23548;51.196;6.838;2023-04-25T09:29:32;9.80;;;2.97;;
37701;SDS011;23548;51.196;6.838;2023-04-25T09:34:54;8.88;;;3.05;;
37701;SDS011;23548;51.196;6.838;2023-04-25T09:39:54;7.80;;;2.55;;
37701;SDS011;23548;51.196;6.838;2023-04-25T09:42:30;9.30;;;2.78;;
37701;SDS011;23548;51.196;6.838;2023-04-25T09:44:57;11.80;;;2.88;;
37701;SDS011;23548;51.196;6.838;2023-04-25T09:47:24;8.80;;;2.65;;
37701;SDS011;23548;51.196;6.838;2023-04-25T09:49:52;10.73;;;3.10;;
37701;SDS011;23548;51.196;6.838;2023-04-25T09:52:19;14.32;;;2.90;;
37701;SDS011;23548;51.196;6.838;2023-04-25T09:54:47;23.02;;;3.50;;
37701;SDS011;23548;51.196;6.838;2023-04-25T09:57:14;11.85;;;2.75;;
37701;SDS011;23548;51.196;6.838;2023-04-25T09:59:43;9.55;;;2.35;;
37701;SDS011;23548;51.196;6.838;2023-04-25T10:02:23;9.07;;;2.42;;
37701;SDS011;23548;51.196;6.838;2023-04-25T10:04:50;8.60;;;2.00;;
37701;SDS011;23548;51.196;6.838;2023-04-25T10:07:20;8.90;;;1.98;;
37701;SDS011;23548;51.196;6.838;2023-04-25T10:09:50;6.97;;;2.33;;
37701;SDS011;23548;51.196;6.838;2023-04-25T10:12:28;7.57;;;2.05;;
37701;SDS011;23548;51.196;6.838;2023-04-25T10:14:56;7.75;;;2.35;;
37701;SDS011;23548;51.196;6.838;2023-04-25T10:17:23;9.65;;;2.95;;
37701;SDS011;23548;51.196;6.838;2023-04-25T10:19:52;6.97;;;2.53;;
37701;SDS011;23548;51.196;6.838;2023-04-25T10:22:35;7.70;;;2.70;;
37701;SDS011;23548;51.196;6.838;2023-04-25T10:25:05;8.65;;;2.80;;
37701;SDS011;23548;51.196;6.838;2023-04-25T10:27:33;8.82;;;2.38;;
37701;SDS011;23548;51.196;6.838;2023-04-25T10:30:09;7.80;;;2.22;;
37701;SDS011;23548;51.196;6.838;2023-04-25T10:32:41;7.85;;;2.90;;
37701;SDS011;23548;51.196;6.838;2023-04-25T10:35:17;10.52;;;2.55;;
37701;SDS011;23548;51.196;6.838;2023-04-25T10:40:35;8.48;;;2.75;;
37701;SDS011;23548;51.196;6.838;2023-04-25T10:46:03;11.60;;;2.63;;
37701;SDS011;23548;51.196;6.838;2023-04-25T10:48:48;7.47;;;2.40;;
37701;SDS011;23548;51.196;6.838;2023-04-25T10:51:25;12.43;;;1.98;;
37701;SDS011;23548;51.196;6.838;2023-04-25T10:56:32;6.95;;;2.30;;
37701;SDS011;23548;51.196;6.838;2023-04-25T11:01:36;7.65;;;1.60;;
37701;SDS011;23548;51.196;6.838;2023-04-25T11:04:02;3.50;;;1.40;;
37701;SDS011;23548;51.196;6.838;2023-04-25T11:08:57;6.68;;;2.40;;
37701;SDS011;23548;51.196;6.838;2023-04-25T11:11:27;5.47;;;1.70;;
37701;SDS011;23548;51.196;6.838;2023-04-25T11:13:54;7.28;;;1.60;;
37701;SDS011;23548;51.196;6.838;2023-04-25T11:16:20;5.60;;;1.38;;
37701;SDS011;23548;51.196;6.838;2023-04-25T11:18:50;5.43;;;1.55;;
37701;SDS011;23548;51.196;6.838;2023-04-25T11:21:16;6.80;;;2.03;;
37701;SDS011;23548;51.196;6.838;2023-04-25T11:23:44;5.95;;;1.90;;
37701;SDS011;23548;51.196;6.838;2023-04-25T11:26:11;5.47;;;1.83;;
37701;SDS011;23548;51.196;6.838;2023-04-25T11:28:37;5.90;;;1.73;;
37701;SDS011;23548;51.196;6.838;2023-04-25T11:31:04;5.13;;;1.63;;
37701;SDS011;23548;51.196;6.838;2023-04-25T11:33:29;4.55;;;1.52;;
37701;SDS011;23548;51.196;6.838;2023-04-25T11:35:55;6.22;;;1.63;;
37701;SDS011;23548;51.196;6.838;2023-04-25T11:38:22;6.43;;;2.20;;
37701;SDS011;23548;51.196;6.838;2023-04-25T11:40:50;4.03;;;1.83;;
37701;SDS011;23548;51.196;6.838;2023-04-25T11:43:20;6.00;;;2.03;;
37701;SDS011;23548;51.196;6.838;2023-04-25T11:45:47;11.73;;;2.40;;
37701;SDS011;23548;51.196;6.838;2023-04-25T11:48:15;6.20;;;2.00;;
37701;SDS011;23548;51.196;6.838;2023-04-25T11:50:41;8.50;;;2.85;;
37701;SDS011;23548;51.196;6.838;2023-04-25T11:53:07;5.95;;;2.40;;
37701;SDS011;23548;51.196;6.838;2023-04-25T11:55:33;4.53;;;1.80;;
37701;SDS011;23548;51.196;6.838;2023-04-25T11:58:00;8.00;;;2.45;;
37701;SDS011;23548;51.196;6.838;2023-04-25T12:00:27;5.35;;;2.30;;
37701;SDS011;23548;51.196;6.838;2023-04-25T12:02:54;7.15;;;2.40;;
37701;SDS011;23548;51.196;6.838;2023-04-25T12:05:27;7.53;;;2.13;;
37701;SDS011;23548;51.196;6.838;2023-04-25T12:07:54;7.28;;;2.30;;
37701;SDS011;23548;51.196;6.838;2023-04-25T12:10:20;6.10;;;2.20;;
37701;SDS011;23548;51.196;6.838;2023-04-25T12:12:47;7.95;;;2.53;;
37701;SDS011;23548;51.196;6.838;2023-04-25T12:17:47;7.80;;;2.67;;
37701;SDS011;23548;51.196;6.838;2023-04-25T12:20:16;5.55;;;2.35;;
37701;SDS011;23548;51.196;6.838;2023-04-25T12:22:48;5.90;;;2.28;;
37701;SDS011;23548;51.196;6.838;2023-04-25T12:25:34;8.90;;;2.55;;
37701;SDS011;23548;51.196;6.838;2023-04-25T12:30:56;9.00;;;2.28;;
37701;SDS011;23548;51.196;6.838;2023-04-25T12:33:23;7.28;;;2.95;;
37701;SDS011;23548;51.196;6.838;2023-04-25T12:35:50;11.70;;;4.22;;
37701;SDS011;23548;51.196;6.838;2023-04-25T12:38:25;11.73;;;4.55;;
37701;SDS011;23548;51.196;6.838;2023-04-25T12:40:52;14.18;;;4.97;;
37701;SDS011;23548;51.196;6.838;2023-04-25T12:43:19;14.95;;;5.32;;
37701;SDS011;23548;51.196;6.838;2023-04-25T12:45:47;15.13;;;4.50;;
37701;SDS011;23548;51.196;6.838;2023-04-25T12:48:17;11.77;;;4.18;;
37701;SDS011;23548;51.196;6.838;2023-04-25T12:50:43;13.02;;;4.03;;
37701;SDS011;23548;51.196;6.838;2023-04-25T12:53:10;15.50;;;4.10;;
37701;SDS011;23548;51.196;6.838;2023-04-25T12:55:36;11.65;;;4.38;;
37701;SDS011;23548;51.196;6.838;2023-04-25T12:58:02;11.27;;;4.00;;
37701;SDS011;23548;51.196;6.838;2023-04-25T13:00:28;8.98;;;3.90;;
37701;SDS011;23548;51.196;6.838;2023-04-25T13:02:54;15.02;;;3.88;;
37701;SDS011;23548;51.196;6.838;2023-04-25T13:05:20;9.63;;;4.00;;
37701;SDS011;23548;51.196;6.838;2023-04-25T13:07:46;8.95;;;3.42;;
37701;SDS011;23548;51.196;6.838;2023-04-25T13:10:12;10.77;;;4.05;;
37701;SDS011;23548;51.196;6.838;2023-04-25T13:12:38;11.65;;;3.60;;
37701;SDS011;23548;51.196;6.838;2023-04-25T13:15:04;7.32;;;3.28;;
37701;SDS011;23548;51.196;6.838;2023-04-25T13:17:30;8.32;;;3.25;;
37701;SDS011;23548;51.196;6.838;2023-04-25T13:19:55;10.98;;;3.35;;
37701;SDS011;23548;51.196;6.838;2023-04-25T13:22:21;6.82;;;2.65;;
37701;SDS011;23548;51.196;6.838;2023-04-25T13:24:47;11.30;;;3.10;;
37701;SDS011;23548;51.196;6.838;2023-04-25T13:27:13;7.78;;;2.72;;
37701;SDS011;23548;51.196;6.838;2023-04-25T13:29:38;6.82;;;2.60;;
37701;SDS011;23548;51.196;6.838;2023-04-25T13:32:05;6.18;;;2.35;;
37701;SDS011;23548;51.196;6.838;2023-04-25T13:34:31;7.22;;;2.28;;
37701;SDS011;23548;51.196;6.838;2023-04-25T13:36:57;5.18;;;2.15;;
37701;SDS011;23548;51.196;6.838;2023-04-25T13:39:23;5.00;;;1.80;;
37701;SDS011;23548;51.196;6.838;2023-04-25T13:41:49;5.55;;;2.00;;
37701;SDS011;23548;51.196;6.838;2023-04-25T13:44:15;3.92;;;1.98;;
37701;SDS011;23548;51.196;6.838;2023-04-25T13:46:41;6.10;;;2.20;;
37701;SDS011;23548;51.196;6.838;2023-04-25T13:49:07;10.15;;;2.53;;
37701;SDS011;23548;51.196;6.838;2023-04-25T13:51:33;6.80;;;2.75;;
37701;SDS011;23548;51.196;6.838;2023-04-25T13:53:59;6.00;;;2.25;;
37701;SDS011;23548;51.196;6.838;2023-04-25T13:56:24;4.00;;;1.73;;
37701;SDS011;23548;51.196;6.838;2023-04-25T13:58:51;7.50;;;2.00;;
37701;SDS011;23548;51.196;6.838;2023-04-25T14:01:17;3.72;;;1.73;;
37701;SDS011;23548;51.196;6.838;2023-04-25T14:03:43;9.05;;;2.15;;
37701;SDS011;23548;51.196;6.838;2023-04-25T14:06:10;4.93;;;1.52;;
37701;SDS011;23548;51.196;6.838;2023-04-25T14:08:37;3.70;;;1.48;;
37701;SDS011;23548;51.196;6.838;2023-04-25T14:11:03;4.22;;;1.60;;
37701;SDS011;23548;51.196;6.838;2023-04-25T14:13:29;11.35;;;2.10;;
37701;SDS011;23548;51.196;6.838;2023-04-25T14:15:55;4.57;;;1.67;;
37701;SDS011;23548;51.196;6.838;2023-04-25T14:18:21;7.28;;;1.80;;
37701;SDS011;23548;51.196;6.838;2023-04-25T14:20:47;4.57;;;1.70;;
37701;SDS011;23548;51.196;6.838;2023-04-25T14:23:13;6.13;;;2.10;;
37701;SDS011;23548;51.196;6.838;2023-04-25T14:25:39;3.95;;;2.00;;
37701;SDS011;23548;51.196;6.838;2023-04-25T14:28:06;5.90;;;2.30;;
37701;SDS011;23548;51.196;6.838;2023-04-25T14:30:32;8.32;;;2.30;;
37701;SDS011;23548;51.196;6.838;2023-04-25T14:32:58;9.30;;;2.15;;
37701;SDS011;23548;51.196;6.838;2023-04-25T14:35:24;10.10;;;2.63;;
37701;SDS011;23548;51.196;6.838;2023-04-25T14:37:50;8.70;;;2.10;;
37701;SDS011;23548;51.196;6.838;2023-04-25T14:40:17;9.93;;;2.28;;
37701;SDS011;23548;51.196;6.838;2023-04-25T14:42:43;6.97;;;1.98;;
37701;SDS011;23548;51.196;6.838;2023-04-25T14:45:08;6.03;;;2.22;;
37701;SDS011;23548;51.196;6.838;2023-04-25T14:47:37;10.27;;;2.33;;
37701;SDS011;23548;51.196;6.838;2023-04-25T14:50:03;9.60;;;2.67;;
37701;SDS011;23548;51.196;6.838;2023-04-25T14:52:30;5.68;;;2.40;;
37701;SDS011;23548;51.196;6.838;2023-04-25T14:54:56;8.05;;;2.53;;
37701;SDS011;23548;51.196;6.838;2023-04-25T14:57:22;9.95;;;2.70;;
37701;SDS011;23548;51.196;6.838;2023-04-25T14:59:47;11.32;;;2.97;;
37701;SDS011;23548;51.196;6.838;2023-04-25T15:02:13;5.38;;;2.33;;
37701;SDS011;23548;51.196;6.838;2023-04-25T15:04:39;7.45;;;2.22;;
37701;SDS011;23548;51.196;6.838;2023-04-25T15:07:05;7.57;;;2.13;;
37701;SDS011;23548;51.196;6.838;2023-04-25T15:09:31;6.78;;;2.40;;